sensor_id;sensor_type;location;lat;lon;timestamp;temperature;humidity
871;DHT22;422;51.280;7.236;2023-04-06T00:00:59;0.90;99.90
871;DHT22;422;51.280;7.236;2023-04-06T00:03:26;0.90;99.90
871;DHT22;422;51.280;7.236;2023-04-06T00:05:53;0.80;99.90
871;DHT22;422;51.280;7.236;2023-04-06T00:08:21;0.70;99.90
871;DHT22;422;51.280;7.236;2023-04-06T00:10:50;0.60;99.90
871;DHT22;422;51.280;7.236;2023-04-06T00:13:18;0.50;99.90
871;DHT22;422;51.280;7.236;2023-04-06T00:15:45;0.50;99.90
871;DHT22;422;51.280;7.236;2023-04-06T00:18:12;0.50;99.90
871;DHT22;422;51.280;7.236;2023-04-06T00:20:40;0.50;99.90
871;DHT22;422;51.280;7.236;2023-04-06T00:23:07;0.50;99.90
871;DHT22;422;51.280;7.236;2023-04-06T00:25:34;0.40;99.90
871;DHT22;422;51.280;7.236;2023-04-06T00:28:03;0.50;99.90
871;DHT22;422;51.280;7.236;2023-04-06T00:30:31;0.50;99.90
871;DHT22;422;51.280;7.236;2023-04-06T00:32:58;0.40;99.90
871;DHT22;422;51.280;7.236;2023-04-06T00:35:26;0.40;99.90
871;DHT22;422;51.280;7.236;2023-04-06T00:37:53;0.40;99.90
871;DHT22;422;51.280;7.236;2023-04-06T00:40:20;0.40;99.90
871;DHT22;422;51.280;7.236;2023-04-06T00:42:48;0.40;99.90
871;DHT22;422;51.280;7.236;2023-04-06T00:45:17;0.40;99.90
871;DHT22;422;51.280;7.236;2023-04-06T00:47:44;0.40;99.90
871;DHT22;422;51.280;7.236;2023-04-06T00:50:11;0.40;99.90
871;DHT22;422;51.280;7.236;2023-04-06T00:52:39;0.40;99.90
871;DHT22;422;51.280;7.236;2023-04-06T00:55:07;0.40;99.90
871;DHT22;422;51.280;7.236;2023-04-06T00:57:34;0.30;99.90
871;DHT22;422;51.280;7.236;2023-04-06T01:00:03;0.20;99.90
871;DHT22;422;51.280;7.236;2023-04-06T01:02:32;0.30;99.90
871;DHT22;422;51.280;7.236;2023-04-06T01:05:01;0.30;99.90
871;DHT22;422;51.280;7.236;2023-04-06T01:07:28;0.50;99.90
871;DHT22;422;51.280;7.236;2023-04-06T01:09:55;0.50;99.90
871;DHT22;422;51.280;7.236;2023-04-06T01:12:23;0.50;99.90
871;DHT22;422;51.280;7.236;2023-04-06T01:14:51;0.60;99.90
871;DHT22;422;51.280;7.236;2023-04-06T01:17:18;0.60;99.90
871;DHT22;422;51.280;7.236;2023-04-06T01:19:47;0.70;99.90
871;DHT22;422;51.280;7.236;2023-04-06T01:25:39;0.60;99.90
871;DHT22;422;51.280;7.236;2023-04-06T01:28:06;0.60;99.90
871;DHT22;422;51.280;7.236;2023-04-06T01:30:33;0.50;99.90
871;DHT22;422;51.280;7.236;2023-04-06T01:33:01;0.60;99.90
871;DHT22;422;51.280;7.236;2023-04-06T01:35:29;0.50;99.90
871;DHT22;422;51.280;7.236;2023-04-06T01:37:57;0.50;99.90
871;DHT22;422;51.280;7.236;2023-04-06T01:40:24;0.50;99.90
871;DHT22;422;51.280;7.236;2023-04-06T01:42:53;0.50;99.90
871;DHT22;422;51.280;7.236;2023-04-06T01:45:20;0.60;99.90
871;DHT22;422;51.280;7.236;2023-04-06T01:47:47;0.60;99.90
871;DHT22;422;51.280;7.236;2023-04-06T01:50:14;0.60;99.90
871;DHT22;422;51.280;7.236;2023-04-06T01:52:42;0.60;99.90
871;DHT22;422;51.280;7.236;2023-04-06T01:55:09;0.50;99.90
871;DHT22;422;51.280;7.236;2023-04-06T01:57:36;0.50;99.90
871;DHT22;422;51.280;7.236;2023-04-06T02:00:06;0.50;99.90
871;DHT22;422;51.280;7.236;2023-04-06T02:02:34;0.60;99.90
871;DHT22;422;51.280;7.236;2023-04-06T02:05:01;0.50;99.90
871;DHT22;422;51.280;7.236;2023-04-06T02:07:28;0.40;99.90
871;DHT22;422;51.280;7.236;2023-04-06T02:09:56;0.40;99.90
871;DHT22;422;51.280;7.236;2023-04-06T02:12:23;0.40;99.90
871;DHT22;422;51.280;7.236;2023-04-06T02:14:50;0.40;99.90
871;DHT22;422;51.280;7.236;2023-04-06T02:17:19;0.30;99.90
871;DHT22;422;51.280;7.236;2023-04-06T02:19:46;0.30;99.90
871;DHT22;422;51.280;7.236;2023-04-06T02:22:14;0.30;99.90
871;DHT22;422;51.280;7.236;2023-04-06T02:24:41;0.30;99.90
871;DHT22;422;51.280;7.236;2023-04-06T02:27:20;0.30;99.90
871;DHT22;422;51.280;7.236;2023-04-06T02:29:47;0.30;99.90
871;DHT22;422;51.280;7.236;2023-04-06T02:32:14;0.30;99.90
871;DHT22;422;51.280;7.236;2023-04-06T02:34:43;0.30;99.90
871;DHT22;422;51.280;7.236;2023-04-06T02:37:10;0.20;99.90
871;DHT22;422;51.280;7.236;2023-04-06T02:39:38;0.20;99.90
871;DHT22;422;51.280;7.236;2023-04-06T02:42:05;0.20;99.90
871;DHT22;422;51.280;7.236;2023-04-06T02:44:34;0.10;99.90
871;DHT22;422;51.280;7.236;2023-04-06T02:47:01;0.10;99.90
871;DHT22;422;51.280;7.236;2023-04-06T02:49:29;0.10;99.90
871;DHT22;422;51.280;7.236;2023-04-06T02:51:57;0.00;99.90
871;DHT22;422;51.280;7.236;2023-04-06T02:54:25;0.00;99.90
871;DHT22;422;51.280;7.236;2023-04-06T02:56:52;0.00;99.90
871;DHT22;422;51.280;7.236;2023-04-06T02:59:19;0.00;99.90
871;DHT22;422;51.280;7.236;2023-04-06T03:01:47;0.00;99.90
871;DHT22;422;51.280;7.236;2023-04-06T03:04:14;0.00;99.90
871;DHT22;422;51.280;7.236;2023-04-06T03:06:41;-0.10;99.90
871;DHT22;422;51.280;7.236;2023-04-06T03:09:10;-0.10;99.90
871;DHT22;422;51.280;7.236;2023-04-06T03:11:37;-0.20;99.90
871;DHT22;422;51.280;7.236;2023-04-06T03:14:05;-0.20;99.90
871;DHT22;422;51.280;7.236;2023-04-06T03:16:32;-0.10;99.90
871;DHT22;422;51.280;7.236;2023-04-06T03:18:59;-0.10;99.90
871;DHT22;422;51.280;7.236;2023-04-06T03:21:27;-0.10;99.90
871;DHT22;422;51.280;7.236;2023-04-06T03:23:54;-0.10;99.90
871;DHT22;422;51.280;7.236;2023-04-06T03:26:22;-0.30;99.90
871;DHT22;422;51.280;7.236;2023-04-06T03:28:50;-0.20;99.90
871;DHT22;422;51.280;7.236;2023-04-06T03:31:17;-0.10;99.90
871;DHT22;422;51.280;7.236;2023-04-06T03:33:44;-0.20;99.90
871;DHT22;422;51.280;7.236;2023-04-06T03:36:13;-0.10;99.90
871;DHT22;422;51.280;7.236;2023-04-06T03:38:40;-0.20;99.90
871;DHT22;422;51.280;7.236;2023-04-06T03:41:08;-0.10;99.90
871;DHT22;422;51.280;7.236;2023-04-06T03:43:37;-0.10;99.90
871;DHT22;422;51.280;7.236;2023-04-06T03:46:04;-0.20;99.90
871;DHT22;422;51.280;7.236;2023-04-06T03:48:32;-0.30;99.90
871;DHT22;422;51.280;7.236;2023-04-06T03:51:08;-0.30;99.90
871;DHT22;422;51.280;7.236;2023-04-06T03:53:35;-0.10;99.90
871;DHT22;422;51.280;7.236;2023-04-06T03:56:04;-0.20;99.90
871;DHT22;422;51.280;7.236;2023-04-06T03:58:32;-0.30;99.90
871;DHT22;422;51.280;7.236;2023-04-06T04:01:00;-0.20;99.90
871;DHT22;422;51.280;7.236;2023-04-06T04:03:27;-0.20;99.90
871;DHT22;422;51.280;7.236;2023-04-06T04:05:55;-0.10;99.90
871;DHT22;422;51.280;7.236;2023-04-06T04:08:22;-0.10;99.90
871;DHT22;422;51.280;7.236;2023-04-06T04:10:50;0.10;99.90
871;DHT22;422;51.280;7.236;2023-04-06T04:13:17;-0.10;99.90
871;DHT22;422;51.280;7.236;2023-04-06T04:15:44;-0.10;99.90
871;DHT22;422;51.280;7.236;2023-04-06T04:18:14;-0.10;99.90
871;DHT22;422;51.280;7.236;2023-04-06T04:20:41;-0.20;99.90
871;DHT22;422;51.280;7.236;2023-04-06T04:23:09;-0.10;99.90
871;DHT22;422;51.280;7.236;2023-04-06T04:25:36;-0.10;99.90
871;DHT22;422;51.280;7.236;2023-04-06T04:28:04;0.00;99.90
871;DHT22;422;51.280;7.236;2023-04-06T04:30:31;-0.10;99.90
871;DHT22;422;51.280;7.236;2023-04-06T04:32:59;-0.10;99.90
871;DHT22;422;51.280;7.236;2023-04-06T04:35:27;-0.20;99.90
871;DHT22;422;51.280;7.236;2023-04-06T04:37:55;-0.30;99.90
871;DHT22;422;51.280;7.236;2023-04-06T04:40:22;-0.30;99.90
871;DHT22;422;51.280;7.236;2023-04-06T04:42:49;-0.30;99.90
871;DHT22;422;51.280;7.236;2023-04-06T04:45:17;-0.30;99.90
871;DHT22;422;51.280;7.236;2023-04-06T04:47:45;-0.30;99.90
871;DHT22;422;51.280;7.236;2023-04-06T04:50:12;-0.20;99.90
871;DHT22;422;51.280;7.236;2023-04-06T04:52:41;-0.30;99.90
871;DHT22;422;51.280;7.236;2023-04-06T04:55:11;-0.30;99.90
871;DHT22;422;51.280;7.236;2023-04-06T04:57:39;-0.30;99.90
871;DHT22;422;51.280;7.236;2023-04-06T05:00:07;-0.30;99.90
871;DHT22;422;51.280;7.236;2023-04-06T05:02:34;-0.30;99.90
871;DHT22;422;51.280;7.236;2023-04-06T05:05:02;-0.30;99.90
871;DHT22;422;51.280;7.236;2023-04-06T05:07:29;-0.30;99.90
871;DHT22;422;51.280;7.236;2023-04-06T05:10:08;-0.30;99.90
871;DHT22;422;51.280;7.236;2023-04-06T05:12:35;-0.10;99.90
871;DHT22;422;51.280;7.236;2023-04-06T05:15:03;-0.10;99.90
871;DHT22;422;51.280;7.236;2023-04-06T05:17:31;0.00;99.90
871;DHT22;422;51.280;7.236;2023-04-06T05:19:58;0.00;99.90
871;DHT22;422;51.280;7.236;2023-04-06T05:22:26;0.00;99.90
871;DHT22;422;51.280;7.236;2023-04-06T05:24:53;0.10;99.90
871;DHT22;422;51.280;7.236;2023-04-06T05:27:22;0.30;99.90
871;DHT22;422;51.280;7.236;2023-04-06T05:29:49;0.30;99.90
871;DHT22;422;51.280;7.236;2023-04-06T05:32:17;0.40;99.90
871;DHT22;422;51.280;7.236;2023-04-06T05:34:48;0.40;99.90
871;DHT22;422;51.280;7.236;2023-04-06T05:37:15;0.50;99.90
871;DHT22;422;51.280;7.236;2023-04-06T05:39:43;0.60;99.90
871;DHT22;422;51.280;7.236;2023-04-06T05:42:10;0.70;99.90
871;DHT22;422;51.280;7.236;2023-04-06T05:44:39;0.70;99.90
871;DHT22;422;51.280;7.236;2023-04-06T05:47:06;0.80;99.90
871;DHT22;422;51.280;7.236;2023-04-06T05:49:34;0.80;99.90
871;DHT22;422;51.280;7.236;2023-04-06T05:52:01;0.90;99.90
871;DHT22;422;51.280;7.236;2023-04-06T05:54:29;1.00;99.90
871;DHT22;422;51.280;7.236;2023-04-06T05:56:57;1.10;99.90
871;DHT22;422;51.280;7.236;2023-04-06T05:59:24;1.10;99.90
871;DHT22;422;51.280;7.236;2023-04-06T06:01:53;1.20;99.90
871;DHT22;422;51.280;7.236;2023-04-06T06:04:20;1.40;99.90
871;DHT22;422;51.280;7.236;2023-04-06T06:06:47;1.50;99.90
871;DHT22;422;51.280;7.236;2023-04-06T06:09:15;1.60;99.90
871;DHT22;422;51.280;7.236;2023-04-06T06:11:44;1.80;99.90
871;DHT22;422;51.280;7.236;2023-04-06T06:14:11;2.00;99.90
871;DHT22;422;51.280;7.236;2023-04-06T06:16:39;2.20;99.90
871;DHT22;422;51.280;7.236;2023-04-06T06:19:07;2.40;99.90
871;DHT22;422;51.280;7.236;2023-04-06T06:21:35;2.50;99.90
871;DHT22;422;51.280;7.236;2023-04-06T06:24:02;2.70;99.90
871;DHT22;422;51.280;7.236;2023-04-06T06:26:30;2.80;99.90
871;DHT22;422;51.280;7.236;2023-04-06T06:28:57;3.10;99.90
871;DHT22;422;51.280;7.236;2023-04-06T06:31:24;3.40;99.90
871;DHT22;422;51.280;7.236;2023-04-06T06:33:52;3.60;99.90
871;DHT22;422;51.280;7.236;2023-04-06T06:36:21;3.80;99.90
871;DHT22;422;51.280;7.236;2023-04-06T06:38:48;4.10;99.90
871;DHT22;422;51.280;7.236;2023-04-06T06:41:16;4.50;99.90
871;DHT22;422;51.280;7.236;2023-04-06T06:43:46;4.80;99.90
871;DHT22;422;51.280;7.236;2023-04-06T06:46:13;5.00;99.90
871;DHT22;422;51.280;7.236;2023-04-06T06:48:41;5.20;99.90
871;DHT22;422;51.280;7.236;2023-04-06T06:51:08;5.40;99.90
871;DHT22;422;51.280;7.236;2023-04-06T06:53:38;5.60;99.90
871;DHT22;422;51.280;7.236;2023-04-06T06:56:06;5.70;99.90
871;DHT22;422;51.280;7.236;2023-04-06T06:58:33;5.80;99.90
871;DHT22;422;51.280;7.236;2023-04-06T07:01:01;6.00;99.90
871;DHT22;422;51.280;7.236;2023-04-06T07:03:28;6.20;99.90
871;DHT22;422;51.280;7.236;2023-04-06T07:05:55;6.40;99.90
871;DHT22;422;51.280;7.236;2023-04-06T07:08:23;6.60;99.90
871;DHT22;422;51.280;7.236;2023-04-06T07:10:53;6.80;99.90
871;DHT22;422;51.280;7.236;2023-04-06T07:13:22;7.10;99.90
871;DHT22;422;51.280;7.236;2023-04-06T07:15:49;7.30;99.90
871;DHT22;422;51.280;7.236;2023-04-06T07:18:17;7.40;99.90
871;DHT22;422;51.280;7.236;2023-04-06T07:20:44;7.40;99.90
871;DHT22;422;51.280;7.236;2023-04-06T07:23:12;7.70;99.90
871;DHT22;422;51.280;7.236;2023-04-06T07:25:39;7.90;99.90
871;DHT22;422;51.280;7.236;2023-04-06T07:28:08;8.20;99.90
871;DHT22;422;51.280;7.236;2023-04-06T07:30:36;8.40;99.90
871;DHT22;422;51.280;7.236;2023-04-06T07:33:03;8.50;99.90
871;DHT22;422;51.280;7.236;2023-04-06T07:35:31;8.80;99.90
871;DHT22;422;51.280;7.236;2023-04-06T07:37:58;9.10;99.90
871;DHT22;422;51.280;7.236;2023-04-06T07:40:26;9.30;99.90
871;DHT22;422;51.280;7.236;2023-04-06T07:42:53;9.60;99.90
871;DHT22;422;51.280;7.236;2023-04-06T07:45:22;10.00;99.90
871;DHT22;422;51.280;7.236;2023-04-06T07:47:50;10.10;99.90
871;DHT22;422;51.280;7.236;2023-04-06T07:50:17;10.30;99.90
871;DHT22;422;51.280;7.236;2023-04-06T07:52:44;10.50;99.90
871;DHT22;422;51.280;7.236;2023-04-06T07:55:12;10.40;99.90
871;DHT22;422;51.280;7.236;2023-04-06T07:57:39;10.40;99.90
871;DHT22;422;51.280;7.236;2023-04-06T08:00:07;10.50;99.90
871;DHT22;422;51.280;7.236;2023-04-06T08:02:37;10.60;99.90
871;DHT22;422;51.280;7.236;2023-04-06T08:05:05;10.60;99.90
871;DHT22;422;51.280;7.236;2023-04-06T08:07:32;10.80;99.90
871;DHT22;422;51.280;7.236;2023-04-06T08:10:00;11.10;99.90
871;DHT22;422;51.280;7.236;2023-04-06T08:12:27;11.20;99.90
871;DHT22;422;51.280;7.236;2023-04-06T08:14:54;11.10;99.90
871;DHT22;422;51.280;7.236;2023-04-06T08:17:22;11.30;99.90
871;DHT22;422;51.280;7.236;2023-04-06T08:19:51;11.50;99.90
871;DHT22;422;51.280;7.236;2023-04-06T08:22:18;11.40;99.90
871;DHT22;422;51.280;7.236;2023-04-06T08:24:45;11.70;99.90
871;DHT22;422;51.280;7.236;2023-04-06T08:27:13;12.20;99.90
871;DHT22;422;51.280;7.236;2023-04-06T08:29:40;12.70;99.90
871;DHT22;422;51.280;7.236;2023-04-06T08:32:08;13.00;99.90
871;DHT22;422;51.280;7.236;2023-04-06T08:34:35;13.00;99.90
871;DHT22;422;51.280;7.236;2023-04-06T08:37:03;13.00;99.90
871;DHT22;422;51.280;7.236;2023-04-06T08:39:31;12.80;99.90
871;DHT22;422;51.280;7.236;2023-04-06T08:42:00;12.60;99.90
871;DHT22;422;51.280;7.236;2023-04-06T08:44:29;12.50;99.90
871;DHT22;422;51.280;7.236;2023-04-06T08:46:57;12.70;99.90
871;DHT22;422;51.280;7.236;2023-04-06T08:49:26;12.60;99.90
871;DHT22;422;51.280;7.236;2023-04-06T08:51:55;12.90;99.90
871;DHT22;422;51.280;7.236;2023-04-06T08:54:24;12.70;99.90
871;DHT22;422;51.280;7.236;2023-04-06T08:56:52;12.30;99.90
871;DHT22;422;51.280;7.236;2023-04-06T08:59:23;12.30;99.90
871;DHT22;422;51.280;7.236;2023-04-06T09:01:51;12.10;99.90
871;DHT22;422;51.280;7.236;2023-04-06T09:04:19;12.20;99.90
871;DHT22;422;51.280;7.236;2023-04-06T09:06:47;12.20;99.90
871;DHT22;422;51.280;7.236;2023-04-06T09:09:15;12.10;99.90
871;DHT22;422;51.280;7.236;2023-04-06T09:11:45;12.30;99.90
871;DHT22;422;51.280;7.236;2023-04-06T09:14:13;12.30;99.90
871;DHT22;422;51.280;7.236;2023-04-06T09:16:41;12.30;99.90
871;DHT22;422;51.280;7.236;2023-04-06T09:19:09;12.10;99.90
871;DHT22;422;51.280;7.236;2023-04-06T09:21:39;12.20;99.90
871;DHT22;422;51.280;7.236;2023-04-06T09:24:07;12.30;99.90
871;DHT22;422;51.280;7.236;2023-04-06T09:26:46;12.40;99.90
871;DHT22;422;51.280;7.236;2023-04-06T09:29:22;12.30;99.90
871;DHT22;422;51.280;7.236;2023-04-06T09:31:52;12.50;99.90
871;DHT22;422;51.280;7.236;2023-04-06T09:34:23;12.60;99.90
871;DHT22;422;51.280;7.236;2023-04-06T09:36:50;12.70;99.90
871;DHT22;422;51.280;7.236;2023-04-06T09:39:21;12.90;99.90
871;DHT22;422;51.280;7.236;2023-04-06T09:41:52;12.90;99.90
871;DHT22;422;51.280;7.236;2023-04-06T09:44:20;13.00;99.90
871;DHT22;422;51.280;7.236;2023-04-06T09:46:47;13.00;99.90
871;DHT22;422;51.280;7.236;2023-04-06T09:49:15;13.20;99.90
871;DHT22;422;51.280;7.236;2023-04-06T09:51:47;13.40;99.90
871;DHT22;422;51.280;7.236;2023-04-06T09:54:19;13.50;99.90
871;DHT22;422;51.280;7.236;2023-04-06T09:56:53;13.90;99.90
871;DHT22;422;51.280;7.236;2023-04-06T09:59:29;14.20;99.90
871;DHT22;422;51.280;7.236;2023-04-06T10:01:59;14.40;99.90
871;DHT22;422;51.280;7.236;2023-04-06T10:04:32;14.60;99.90
871;DHT22;422;51.280;7.236;2023-04-06T10:07:05;14.60;99.90
871;DHT22;422;51.280;7.236;2023-04-06T10:09:35;14.90;99.90
871;DHT22;422;51.280;7.236;2023-04-06T10:12:05;14.50;99.90
871;DHT22;422;51.280;7.236;2023-04-06T10:14:34;14.70;99.90
871;DHT22;422;51.280;7.236;2023-04-06T10:17:03;14.60;99.90
871;DHT22;422;51.280;7.236;2023-04-06T10:19:37;14.70;99.90
871;DHT22;422;51.280;7.236;2023-04-06T10:22:08;14.90;99.90
871;DHT22;422;51.280;7.236;2023-04-06T10:24:37;14.90;99.90
871;DHT22;422;51.280;7.236;2023-04-06T10:27:06;14.90;99.90
871;DHT22;422;51.280;7.236;2023-04-06T10:29:44;15.10;99.90
871;DHT22;422;51.280;7.236;2023-04-06T10:32:12;15.30;99.90
871;DHT22;422;51.280;7.236;2023-04-06T10:34:39;15.20;99.90
871;DHT22;422;51.280;7.236;2023-04-06T10:37:14;15.20;99.90
871;DHT22;422;51.280;7.236;2023-04-06T10:39:51;15.20;99.90
871;DHT22;422;51.280;7.236;2023-04-06T10:42:35;15.10;99.90
871;DHT22;422;51.280;7.236;2023-04-06T10:45:06;15.10;99.90
871;DHT22;422;51.280;7.236;2023-04-06T10:47:39;15.10;99.90
871;DHT22;422;51.280;7.236;2023-04-06T10:50:07;15.20;99.90
871;DHT22;422;51.280;7.236;2023-04-06T10:52:35;15.40;99.90
871;DHT22;422;51.280;7.236;2023-04-06T10:55:02;15.50;99.90
871;DHT22;422;51.280;7.236;2023-04-06T10:57:31;15.70;99.90
871;DHT22;422;51.280;7.236;2023-04-06T10:59:58;15.60;99.90
871;DHT22;422;51.280;7.236;2023-04-06T11:02:26;15.00;99.90
871;DHT22;422;51.280;7.236;2023-04-06T11:04:56;14.80;99.90
871;DHT22;422;51.280;7.236;2023-04-06T11:07:24;14.70;99.90
871;DHT22;422;51.280;7.236;2023-04-06T11:09:53;14.80;99.90
871;DHT22;422;51.280;7.236;2023-04-06T11:12:24;15.10;99.90
871;DHT22;422;51.280;7.236;2023-04-06T11:14:57;14.90;99.90
871;DHT22;422;51.280;7.236;2023-04-06T11:17:30;15.30;99.90
871;DHT22;422;51.280;7.236;2023-04-06T11:19:58;15.30;99.90
871;DHT22;422;51.280;7.236;2023-04-06T11:22:26;15.40;99.90
871;DHT22;422;51.280;7.236;2023-04-06T11:25:04;15.60;99.90
871;DHT22;422;51.280;7.236;2023-04-06T11:27:31;15.70;99.90
871;DHT22;422;51.280;7.236;2023-04-06T11:30:00;15.30;99.90
871;DHT22;422;51.280;7.236;2023-04-06T11:32:28;15.00;99.90
871;DHT22;422;51.280;7.236;2023-04-06T11:34:58;15.20;99.90
871;DHT22;422;51.280;7.236;2023-04-06T11:37:26;15.50;99.90
871;DHT22;422;51.280;7.236;2023-04-06T11:39:55;15.80;99.90
871;DHT22;422;51.280;7.236;2023-04-06T11:42:23;16.20;99.90
871;DHT22;422;51.280;7.236;2023-04-06T11:44:53;16.30;99.90
871;DHT22;422;51.280;7.236;2023-04-06T11:47:28;16.20;99.90
871;DHT22;422;51.280;7.236;2023-04-06T11:50:04;16.20;99.90
871;DHT22;422;51.280;7.236;2023-04-06T11:52:32;16.30;99.90
871;DHT22;422;51.280;7.236;2023-04-06T11:55:10;15.80;99.90
871;DHT22;422;51.280;7.236;2023-04-06T11:57:38;15.60;99.90
871;DHT22;422;51.280;7.236;2023-04-06T12:00:07;15.50;99.90
871;DHT22;422;51.280;7.236;2023-04-06T12:02:36;15.60;99.90
871;DHT22;422;51.280;7.236;2023-04-06T12:05:05;15.60;99.90
871;DHT22;422;51.280;7.236;2023-04-06T12:07:34;15.60;99.90
871;DHT22;422;51.280;7.236;2023-04-06T12:10:03;15.90;99.90
871;DHT22;422;51.280;7.236;2023-04-06T12:12:30;16.10;99.90
871;DHT22;422;51.280;7.236;2023-04-06T12:14:58;16.30;99.90
871;DHT22;422;51.280;7.236;2023-04-06T12:17:25;16.00;99.90
871;DHT22;422;51.280;7.236;2023-04-06T12:19:54;15.90;99.90
871;DHT22;422;51.280;7.236;2023-04-06T12:22:21;15.50;99.90
871;DHT22;422;51.280;7.236;2023-04-06T12:24:48;14.80;99.90
871;DHT22;422;51.280;7.236;2023-04-06T12:27:16;14.90;99.90
871;DHT22;422;51.280;7.236;2023-04-06T12:29:43;15.00;99.90
871;DHT22;422;51.280;7.236;2023-04-06T12:32:10;14.90;99.90
871;DHT22;422;51.280;7.236;2023-04-06T12:34:38;14.40;99.90
871;DHT22;422;51.280;7.236;2023-04-06T12:37:07;14.70;99.90
871;DHT22;422;51.280;7.236;2023-04-06T12:39:34;14.90;99.90
871;DHT22;422;51.280;7.236;2023-04-06T12:42:01;14.80;99.90
871;DHT22;422;51.280;7.236;2023-04-06T12:44:30;14.80;99.90
871;DHT22;422;51.280;7.236;2023-04-06T12:46:57;14.60;99.90
871;DHT22;422;51.280;7.236;2023-04-06T12:49:26;14.70;99.90
871;DHT22;422;51.280;7.236;2023-04-06T12:51:53;14.70;99.90
871;DHT22;422;51.280;7.236;2023-04-06T12:54:22;14.70;99.90
871;DHT22;422;51.280;7.236;2023-04-06T12:56:51;14.70;99.90
871;DHT22;422;51.280;7.236;2023-04-06T12:59:18;14.20;99.90
871;DHT22;422;51.280;7.236;2023-04-06T13:01:46;14.10;99.90
871;DHT22;422;51.280;7.236;2023-04-06T13:04:14;14.10;99.90
871;DHT22;422;51.280;7.236;2023-04-06T13:06:41;14.10;99.90
871;DHT22;422;51.280;7.236;2023-04-06T13:09:08;13.90;99.90
871;DHT22;422;51.280;7.236;2023-04-06T13:11:37;14.00;99.90
871;DHT22;422;51.280;7.236;2023-04-06T13:14:04;14.00;99.90
871;DHT22;422;51.280;7.236;2023-04-06T13:16:32;13.90;99.90
871;DHT22;422;51.280;7.236;2023-04-06T13:18:59;14.10;99.90
871;DHT22;422;51.280;7.236;2023-04-06T13:21:27;14.20;99.90
871;DHT22;422;51.280;7.236;2023-04-06T13:23:55;14.10;99.90
871;DHT22;422;51.280;7.236;2023-04-06T13:26:22;14.10;99.90
871;DHT22;422;51.280;7.236;2023-04-06T13:28:51;14.20;99.90
871;DHT22;422;51.280;7.236;2023-04-06T13:31:18;14.20;99.90
871;DHT22;422;51.280;7.236;2023-04-06T13:33:45;14.40;99.90
871;DHT22;422;51.280;7.236;2023-04-06T13:36:12;14.20;99.90
871;DHT22;422;51.280;7.236;2023-04-06T13:38:40;14.30;99.90
871;DHT22;422;51.280;7.236;2023-04-06T13:41:07;14.30;99.90
871;DHT22;422;51.280;7.236;2023-04-06T13:43:35;14.30;99.90
871;DHT22;422;51.280;7.236;2023-04-06T13:46:04;14.10;99.90
871;DHT22;422;51.280;7.236;2023-04-06T13:48:31;13.90;99.90
871;DHT22;422;51.280;7.236;2023-04-06T13:51:08;13.90;99.90
871;DHT22;422;51.280;7.236;2023-04-06T13:53:35;13.80;99.90
871;DHT22;422;51.280;7.236;2023-04-06T13:56:02;13.60;99.90
871;DHT22;422;51.280;7.236;2023-04-06T13:58:30;13.60;99.90
871;DHT22;422;51.280;7.236;2023-04-06T14:01:03;13.30;99.90
871;DHT22;422;51.280;7.236;2023-04-06T14:03:32;13.30;99.90
871;DHT22;422;51.280;7.236;2023-04-06T14:05:59;13.10;99.90
871;DHT22;422;51.280;7.236;2023-04-06T14:08:26;12.90;99.90
871;DHT22;422;51.280;7.236;2023-04-06T14:10:53;12.70;99.90
871;DHT22;422;51.280;7.236;2023-04-06T14:13:21;12.60;99.90
871;DHT22;422;51.280;7.236;2023-04-06T14:15:53;12.60;99.90
871;DHT22;422;51.280;7.236;2023-04-06T14:18:22;12.60;99.90
871;DHT22;422;51.280;7.236;2023-04-06T14:20:54;12.70;99.90
871;DHT22;422;51.280;7.236;2023-04-06T14:23:22;12.80;99.90
871;DHT22;422;51.280;7.236;2023-04-06T14:25:51;12.80;99.90
871;DHT22;422;51.280;7.236;2023-04-06T14:28:20;12.60;99.90
871;DHT22;422;51.280;7.236;2023-04-06T14:30:47;12.50;99.90
871;DHT22;422;51.280;7.236;2023-04-06T14:33:14;12.30;99.90
871;DHT22;422;51.280;7.236;2023-04-06T14:35:43;12.00;99.90
871;DHT22;422;51.280;7.236;2023-04-06T14:38:10;12.10;99.90
871;DHT22;422;51.280;7.236;2023-04-06T14:40:37;11.80;99.90
871;DHT22;422;51.280;7.236;2023-04-06T14:43:05;11.60;99.90
871;DHT22;422;51.280;7.236;2023-04-06T14:45:33;11.50;99.90
871;DHT22;422;51.280;7.236;2023-04-06T14:48:02;11.50;99.90
871;DHT22;422;51.280;7.236;2023-04-06T14:50:31;11.60;99.90
871;DHT22;422;51.280;7.236;2023-04-06T14:53:00;11.60;99.90
871;DHT22;422;51.280;7.236;2023-04-06T14:55:27;11.60;99.90
871;DHT22;422;51.280;7.236;2023-04-06T14:57:54;11.60;99.90
871;DHT22;422;51.280;7.236;2023-04-06T15:00:22;11.50;99.90
871;DHT22;422;51.280;7.236;2023-04-06T15:02:49;11.40;99.90
871;DHT22;422;51.280;7.236;2023-04-06T15:05:16;11.40;99.90
871;DHT22;422;51.280;7.236;2023-04-06T15:07:44;11.40;99.90
871;DHT22;422;51.280;7.236;2023-04-06T15:10:12;11.30;99.90
871;DHT22;422;51.280;7.236;2023-04-06T15:12:39;11.10;99.90
871;DHT22;422;51.280;7.236;2023-04-06T15:15:07;11.10;99.90
871;DHT22;422;51.280;7.236;2023-04-06T15:17:34;11.10;99.90
871;DHT22;422;51.280;7.236;2023-04-06T15:20:01;11.00;99.90
871;DHT22;422;51.280;7.236;2023-04-06T15:22:29;10.90;99.90
871;DHT22;422;51.280;7.236;2023-04-06T15:24:56;10.80;99.90
871;DHT22;422;51.280;7.236;2023-04-06T15:27:24;10.70;99.90
871;DHT22;422;51.280;7.236;2023-04-06T15:29:51;10.70;99.90
871;DHT22;422;51.280;7.236;2023-04-06T15:32:19;10.60;99.90
871;DHT22;422;51.280;7.236;2023-04-06T15:34:46;10.60;99.90
871;DHT22;422;51.280;7.236;2023-04-06T15:37:13;10.50;99.90
871;DHT22;422;51.280;7.236;2023-04-06T15:39:40;10.40;99.90
871;DHT22;422;51.280;7.236;2023-04-06T15:42:14;10.30;99.90
871;DHT22;422;51.280;7.236;2023-04-06T15:44:43;10.20;99.90
871;DHT22;422;51.280;7.236;2023-04-06T15:47:10;10.20;99.90
871;DHT22;422;51.280;7.236;2023-04-06T15:49:37;10.20;99.90
871;DHT22;422;51.280;7.236;2023-04-06T15:52:04;10.20;99.90
871;DHT22;422;51.280;7.236;2023-04-06T15:54:31;10.10;99.90
871;DHT22;422;51.280;7.236;2023-04-06T15:56:58;10.10;99.90
871;DHT22;422;51.280;7.236;2023-04-06T15:59:26;9.90;99.90
871;DHT22;422;51.280;7.236;2023-04-06T16:01:54;9.80;99.90
871;DHT22;422;51.280;7.236;2023-04-06T16:04:21;9.70;99.90
871;DHT22;422;51.280;7.236;2023-04-06T16:06:49;9.60;99.90
871;DHT22;422;51.280;7.236;2023-04-06T16:09:16;9.50;99.90
871;DHT22;422;51.280;7.236;2023-04-06T16:11:43;9.40;99.90
871;DHT22;422;51.280;7.236;2023-04-06T16:14:10;9.40;99.90
871;DHT22;422;51.280;7.236;2023-04-06T16:16:37;9.40;99.90
871;DHT22;422;51.280;7.236;2023-04-06T16:19:07;9.40;99.90
871;DHT22;422;51.280;7.236;2023-04-06T16:21:34;9.30;99.90
871;DHT22;422;51.280;7.236;2023-04-06T16:24:02;9.30;99.90
871;DHT22;422;51.280;7.236;2023-04-06T16:26:31;9.20;99.90
871;DHT22;422;51.280;7.236;2023-04-06T16:28:58;9.20;99.90
871;DHT22;422;51.280;7.236;2023-04-06T16:31:26;9.10;99.90
871;DHT22;422;51.280;7.236;2023-04-06T16:33:54;9.10;99.90
871;DHT22;422;51.280;7.236;2023-04-06T16:36:24;8.90;99.90
871;DHT22;422;51.280;7.236;2023-04-06T16:38:52;8.80;99.90
871;DHT22;422;51.280;7.236;2023-04-06T16:41:19;8.80;99.90
871;DHT22;422;51.280;7.236;2023-04-06T16:43:47;8.70;99.90
871;DHT22;422;51.280;7.236;2023-04-06T16:46:14;8.60;99.90
871;DHT22;422;51.280;7.236;2023-04-06T16:48:41;8.60;1.00
871;DHT22;422;51.280;7.236;2023-04-06T16:51:09;8.50;1.00